sensor_id;sensor_type;location;lat;lon;timestamp;pressure;altitude;pressure_sealevel;temperature;humidity
68871;BME280;55906;52.278;6.808;2023-03-20T00:00:04;101719.47;;;11.48;75.93
68871;BME280;55906;52.278;6.808;2023-03-20T00:02:35;101708.94;;;11.48;76.00
68871;BME280;55906;52.278;6.808;2023-03-20T00:05:14;101700.19;;;11.49;76.88
68871;BME280;55906;52.278;6.808;2023-03-20T00:07:43;101708.97;;;11.49;75.91
68871;BME280;55906;52.278;6.808;2023-03-20T00:10:10;101707.28;;;11.51;76.16
68871;BME280;55906;52.278;6.808;2023-03-20T00:12:37;101707.25;;;11.50;75.69
68871;BME280;55906;52.278;6.808;2023-03-20T00:15:05;101707.25;;;11.50;76.54
68871;BME280;55906;52.278;6.808;2023-03-20T00:17:33;101709.81;;;11.48;75.83
68871;BME280;55906;52.278;6.808;2023-03-20T00:20:00;101706.25;;;11.46;76.68
68871;BME280;55906;52.278;6.808;2023-03-20T00:22:28;101698.28;;;11.45;77.17
68871;BME280;55906;52.278;6.808;2023-03-20T00:24:57;101694.31;;;11.32;77.58
68871;BME280;55906;52.278;6.808;2023-03-20T00:27:23;101701.22;;;11.29;78.26
68871;BME280;55906;52.278;6.808;2023-03-20T00:29:50;101703.91;;;11.30;78.37
68871;BME280;55906;52.278;6.808;2023-03-20T00:32:17;101708.94;;;11.24;79.29
68871;BME280;55906;52.278;6.808;2023-03-20T00:34:43;101701.78;;;11.20;79.56
68871;BME280;55906;52.278;6.808;2023-03-20T00:37:10;101703.34;;;11.15;79.94
68871;BME280;55906;52.278;6.808;2023-03-20T00:39:39;101696.28;;;11.14;79.93
68871;BME280;55906;52.278;6.808;2023-03-20T00:42:12;101696.06;;;11.08;79.97
68871;BME280;55906;52.278;6.808;2023-03-20T00:44:48;101701.22;;;11.05;80.57
68871;BME280;55906;52.278;6.808;2023-03-20T00:47:17;101704.75;;;11.05;80.42
68871;BME280;55906;52.278;6.808;2023-03-20T00:49:45;101712.47;;;11.01;80.21
68871;BME280;55906;52.278;6.808;2023-03-20T00:52:13;101705.41;;;11.00;80.05
68871;BME280;55906;52.278;6.808;2023-03-20T00:54:41;101714.88;;;10.95;79.08
68871;BME280;55906;52.278;6.808;2023-03-20T00:57:11;101712.91;;;10.89;78.57
68871;BME280;55906;52.278;6.808;2023-03-20T00:59:43;101721.50;;;10.85;78.50
68871;BME280;55906;52.278;6.808;2023-03-20T01:02:15;101726.84;;;10.86;77.98
68871;BME280;55906;52.278;6.808;2023-03-20T01:04:41;101733.66;;;10.81;77.90
68871;BME280;55906;52.278;6.808;2023-03-20T01:07:12;101737.00;;;10.77;78.25
68871;BME280;55906;52.278;6.808;2023-03-20T01:09:39;101736.19;;;10.78;77.78
68871;BME280;55906;52.278;6.808;2023-03-20T01:12:09;101739.66;;;10.77;78.05
68871;BME280;55906;52.278;6.808;2023-03-20T01:14:36;101748.56;;;10.81;77.74
68871;BME280;55906;52.278;6.808;2023-03-20T01:17:03;101736.13;;;10.77;77.28
68871;BME280;55906;52.278;6.808;2023-03-20T01:19:30;101748.25;;;10.73;77.56
68871;BME280;55906;52.278;6.808;2023-03-20T01:21:56;101747.31;;;10.71;77.15
68871;BME280;55906;52.278;6.808;2023-03-20T01:24:23;101738.63;;;10.74;76.97
68871;BME280;55906;52.278;6.808;2023-03-20T01:26:49;101744.72;;;10.73;76.59
68871;BME280;55906;52.278;6.808;2023-03-20T01:29:20;101742.28;;;10.77;76.39
68871;BME280;55906;52.278;6.808;2023-03-20T01:31:47;101745.63;;;10.73;76.57
68871;BME280;55906;52.278;6.808;2023-03-20T01:34:14;101736.06;;;10.75;76.15
68871;BME280;55906;52.278;6.808;2023-03-20T01:36:43;101738.63;;;10.74;76.22
68871;BME280;55906;52.278;6.808;2023-03-20T01:39:13;101749.81;;;10.68;76.44
68871;BME280;55906;52.278;6.808;2023-03-20T01:41:40;101749.75;;;10.67;76.40
68871;BME280;55906;52.278;6.808;2023-03-20T01:44:18;101749.09;;;10.72;75.93
68871;BME280;55906;52.278;6.808;2023-03-20T01:46:45;101764.00;;;10.72;76.21
68871;BME280;55906;52.278;6.808;2023-03-20T01:52:16;101784.03;;;10.68;76.57
68871;BME280;55906;52.278;6.808;2023-03-20T01:54:43;101790.13;;;10.67;76.21
68871;BME280;55906;52.278;6.808;2023-03-20T01:57:13;101789.94;;;10.63;76.49
68871;BME280;55906;52.278;6.808;2023-03-20T01:59:44;101780.19;;;10.60;76.71
68871;BME280;55906;52.278;6.808;2023-03-20T02:02:14;101773.25;;;10.62;76.71
68871;BME280;55906;52.278;6.808;2023-03-20T02:04:44;101773.13;;;10.59;76.75
68871;BME280;55906;52.278;6.808;2023-03-20T02:07:15;101774.69;;;10.54;76.63
68871;BME280;55906;52.278;6.808;2023-03-20T02:09:45;101779.81;;;10.51;76.90
68871;BME280;55906;52.278;6.808;2023-03-20T02:12:12;101771.63;;;10.43;77.33
68871;BME280;55906;52.278;6.808;2023-03-20T02:14:39;101769.66;;;10.39;77.34
68871;BME280;55906;52.278;6.808;2023-03-20T02:17:08;101772.50;;;10.44;77.48
68871;BME280;55906;52.278;6.808;2023-03-20T02:19:45;101765.44;;;10.43;77.50
68871;BME280;55906;52.278;6.808;2023-03-20T02:25:49;101770.50;;;10.38;77.26
68871;BME280;55906;52.278;6.808;2023-03-20T02:28:39;101767.69;;;10.34;77.19
68871;BME280;55906;52.278;6.808;2023-03-20T02:31:44;101770.31;;;10.34;77.12
68871;BME280;55906;52.278;6.808;2023-03-20T02:37:45;101752.34;;;10.23;77.19
68871;BME280;55906;52.278;6.808;2023-03-20T02:40:22;101746.19;;;10.23;77.10
68871;BME280;55906;52.278;6.808;2023-03-20T02:42:55;101751.16;;;10.17;77.32
68871;BME280;55906;52.278;6.808;2023-03-20T02:45:26;101744.34;;;10.20;77.09
68871;BME280;55906;52.278;6.808;2023-03-20T02:48:00;101752.06;;;10.17;77.08
68871;BME280;55906;52.278;6.808;2023-03-20T02:50:34;101743.66;;;10.05;77.50
68871;BME280;55906;52.278;6.808;2023-03-20T02:53:16;101724.63;;;10.11;77.21
68871;BME280;55906;52.278;6.808;2023-03-20T02:55:47;101698.84;;;10.02;77.36
68871;BME280;55906;52.278;6.808;2023-03-20T02:58:21;101710.50;;;10.09;77.25
68871;BME280;55906;52.278;6.808;2023-03-20T03:00:54;101698.84;;;10.02;77.80
68871;BME280;55906;52.278;6.808;2023-03-20T03:03:27;101706.75;;;10.02;78.13
68871;BME280;55906;52.278;6.808;2023-03-20T03:06:01;101715.72;;;10.07;77.40
68871;BME280;55906;52.278;6.808;2023-03-20T03:08:35;101713.91;;;10.06;77.00
68871;BME280;55906;52.278;6.808;2023-03-20T03:11:06;101707.75;;;10.06;77.04
68871;BME280;55906;52.278;6.808;2023-03-20T03:13:36;101715.72;;;10.07;77.26
68871;BME280;55906;52.278;6.808;2023-03-20T03:16:07;101723.34;;;10.01;77.34
68871;BME280;55906;52.278;6.808;2023-03-20T03:18:36;101719.81;;;10.01;77.59
68871;BME280;55906;52.278;6.808;2023-03-20T03:21:06;101718.09;;;10.01;77.34
68871;BME280;55906;52.278;6.808;2023-03-20T03:23:39;101711.69;;;9.94;77.62
68871;BME280;55906;52.278;6.808;2023-03-20T03:26:10;101715.25;;;9.97;77.58
68871;BME280;55906;52.278;6.808;2023-03-20T03:28:40;101724.63;;;9.90;78.14
68871;BME280;55906;52.278;6.808;2023-03-20T03:31:11;101719.31;;;9.88;78.03
68871;BME280;55906;52.278;6.808;2023-03-20T03:33:42;101715.53;;;9.82;78.23
68871;BME280;55906;52.278;6.808;2023-03-20T03:36:16;101712.19;;;9.86;77.99
68871;BME280;55906;52.278;6.808;2023-03-20T03:38:54;101715.06;;;9.92;77.85
68871;BME280;55906;52.278;6.808;2023-03-20T03:41:26;101712.44;;;9.92;77.67
68871;BME280;55906;52.278;6.808;2023-03-20T03:44:02;101723.41;;;9.82;78.47
68871;BME280;55906;52.278;6.808;2023-03-20T03:46:38;101713.59;;;9.78;78.81
68871;BME280;55906;52.278;6.808;2023-03-20T03:49:07;101712.69;;;9.77;78.69
68871;BME280;55906;52.278;6.808;2023-03-20T03:51:40;101707.75;;;9.85;78.25
68871;BME280;55906;52.278;6.808;2023-03-20T03:54:11;101707.75;;;9.85;78.59
68871;BME280;55906;52.278;6.808;2023-03-20T03:56:42;101702.56;;;9.86;78.83
68871;BME280;55906;52.278;6.808;2023-03-20T03:59:13;101689.81;;;9.75;79.04
68871;BME280;55906;52.278;6.808;2023-03-20T04:01:42;101700.47;;;9.78;79.08
68871;BME280;55906;52.278;6.808;2023-03-20T04:04:13;101691.34;;;9.70;79.38
68871;BME280;55906;52.278;6.808;2023-03-20T04:06:40;101689.63;;;9.70;79.32
68871;BME280;55906;52.278;6.808;2023-03-20T04:09:09;101681.94;;;9.75;78.74
68871;BME280;55906;52.278;6.808;2023-03-20T04:11:35;101685.13;;;9.68;78.42
68871;BME280;55906;52.278;6.808;2023-03-20T04:14:02;101698.28;;;9.68;78.19
68871;BME280;55906;52.278;6.808;2023-03-20T04:16:29;101676.78;;;9.57;78.32
68871;BME280;55906;52.278;6.808;2023-03-20T04:18:55;101679.69;;;9.63;77.88
68871;BME280;55906;52.278;6.808;2023-03-20T04:21:22;101683.41;;;9.68;77.51
68871;BME280;55906;52.278;6.808;2023-03-20T04:23:49;101690.38;;;9.68;77.63
68871;BME280;55906;52.278;6.808;2023-03-20T04:26:17;101682.50;;;9.68;77.32
68871;BME280;55906;52.278;6.808;2023-03-20T04:28:43;101682.31;;;9.63;77.37
68871;BME280;55906;52.278;6.808;2023-03-20T04:31:10;101685.56;;;9.57;77.37
68871;BME280;55906;52.278;6.808;2023-03-20T04:33:36;101680.38;;;9.59;77.24
68871;BME280;55906;52.278;6.808;2023-03-20T04:36:04;101681.78;;;9.51;77.78
68871;BME280;55906;52.278;6.808;2023-03-20T04:38:31;101675.44;;;9.46;77.85
68871;BME280;55906;52.278;6.808;2023-03-20T04:40:58;101674.28;;;9.39;78.16
68871;BME280;55906;52.278;6.808;2023-03-20T04:43:26;101675.19;;;9.40;78.08
68871;BME280;55906;52.278;6.808;2023-03-20T04:45:52;101683.13;;;9.41;77.99
68871;BME280;55906;52.278;6.808;2023-03-20T04:48:19;101690.66;;;9.34;77.86
68871;BME280;55906;52.278;6.808;2023-03-20T04:50:46;101690.53;;;9.30;77.83
68871;BME280;55906;52.278;6.808;2023-03-20T04:53:15;101687.84;;;9.29;77.51
68871;BME280;55906;52.278;6.808;2023-03-20T04:55:42;101695.78;;;9.30;77.72
68871;BME280;55906;52.278;6.808;2023-03-20T04:58:10;101691.16;;;9.25;77.02
68871;BME280;55906;52.278;6.808;2023-03-20T05:00:38;101692.94;;;9.26;77.01
68871;BME280;55906;52.278;6.808;2023-03-20T05:03:05;101689.56;;;9.28;76.93
68871;BME280;55906;52.278;6.808;2023-03-20T05:05:31;101673.94;;;9.32;76.38
68871;BME280;55906;52.278;6.808;2023-03-20T05:08:02;101678.31;;;9.31;76.50
68871;BME280;55906;52.278;6.808;2023-03-20T05:10:29;101672.16;;;9.30;76.48
68871;BME280;55906;52.278;6.808;2023-03-20T05:12:55;101679.81;;;9.26;76.23
68871;BME280;55906;52.278;6.808;2023-03-20T05:15:22;101683.22;;;9.23;75.94
68871;BME280;55906;52.278;6.808;2023-03-20T05:17:50;101678.03;;;9.25;75.48
68871;BME280;55906;52.278;6.808;2023-03-20T05:20:17;101681.56;;;9.25;75.01
68871;BME280;55906;52.278;6.808;2023-03-20T05:22:43;101683.16;;;9.22;75.02
68871;BME280;55906;52.278;6.808;2023-03-20T05:25:10;101676.66;;;9.14;74.79
68871;BME280;55906;52.278;6.808;2023-03-20T05:27:37;101679.28;;;9.14;74.86
68871;BME280;55906;52.278;6.808;2023-03-20T05:30:04;101675.53;;;9.09;75.19
68871;BME280;55906;52.278;6.808;2023-03-20T05:32:31;101670.13;;;9.06;75.35
68871;BME280;55906;52.278;6.808;2023-03-20T05:35:01;101671.88;;;9.05;75.74
68871;BME280;55906;52.278;6.808;2023-03-20T05:37:29;101675.31;;;9.04;75.75
68871;BME280;55906;52.278;6.808;2023-03-20T05:39:55;101685.75;;;9.03;75.71
68871;BME280;55906;52.278;6.808;2023-03-20T05:42:22;101682.34;;;9.05;75.36
68871;BME280;55906;52.278;6.808;2023-03-20T05:44:48;101679.81;;;9.07;75.54
68871;BME280;55906;52.278;6.808;2023-03-20T05:47:15;101680.50;;;9.03;75.38
68871;BME280;55906;52.278;6.808;2023-03-20T05:49:42;101682.78;;;8.95;75.22
68871;BME280;55906;52.278;6.808;2023-03-20T05:52:10;101682.16;;;9.01;75.07
68871;BME280;55906;52.278;6.808;2023-03-20T05:54:36;101685.69;;;9.01;74.91
68871;BME280;55906;52.278;6.808;2023-03-20T05:57:03;101691.75;;;9.00;74.99
68871;BME280;55906;52.278;6.808;2023-03-20T05:59:30;101691.69;;;8.98;75.57
68871;BME280;55906;52.278;6.808;2023-03-20T06:01:56;101687.94;;;8.93;75.88
68871;BME280;55906;52.278;6.808;2023-03-20T06:04:23;101694.09;;;8.94;76.35
68871;BME280;55906;52.278;6.808;2023-03-20T06:06:50;101713.22;;;8.91;76.20
68871;BME280;55906;52.278;6.808;2023-03-20T06:09:18;101707.84;;;8.88;77.02
68871;BME280;55906;52.278;6.808;2023-03-20T06:11:44;101703.41;;;8.87;77.18
68871;BME280;55906;52.278;6.808;2023-03-20T06:14:11;101714.75;;;8.86;78.03
68871;BME280;55906;52.278;6.808;2023-03-20T06:16:37;101709.34;;;8.83;77.78
68871;BME280;55906;52.278;6.808;2023-03-20T06:19:04;101705.91;;;8.84;77.93
68871;BME280;55906;52.278;6.808;2023-03-20T06:21:31;101713.00;;;8.87;78.13
68871;BME280;55906;52.278;6.808;2023-03-20T06:23:57;101709.06;;;8.77;78.34
68871;BME280;55906;52.278;6.808;2023-03-20T06:26:26;101710.78;;;8.77;78.59
68871;BME280;55906;52.278;6.808;2023-03-20T06:28:56;101724.94;;;8.80;78.38
68871;BME280;55906;52.278;6.808;2023-03-20T06:31:22;101717.44;;;8.88;78.65
68871;BME280;55906;52.278;6.808;2023-03-20T06:33:49;101713.97;;;8.89;78.63
68871;BME280;55906;52.278;6.808;2023-03-20T06:36:17;101726.19;;;8.88;78.17
68871;BME280;55906;52.278;6.808;2023-03-20T06:38:43;101726.13;;;8.87;78.01
68871;BME280;55906;52.278;6.808;2023-03-20T06:41:10;101718.25;;;8.87;78.49
68871;BME280;55906;52.278;6.808;2023-03-20T06:43:38;101716.88;;;8.95;78.03
68871;BME280;55906;52.278;6.808;2023-03-20T06:46:07;101717.03;;;8.98;77.84
68871;BME280;55906;52.278;6.808;2023-03-20T06:48:34;101724.13;;;9.01;77.74
68871;BME280;55906;52.278;6.808;2023-03-20T06:51:01;101714.63;;;9.03;77.58
68871;BME280;55906;52.278;6.808;2023-03-20T06:53:27;101727.72;;;9.03;77.52
68871;BME280;55906;52.278;6.808;2023-03-20T06:55:54;101724.13;;;9.01;76.97
68871;BME280;55906;52.278;6.808;2023-03-20T06:58:21;101726.00;;;9.03;77.17
68871;BME280;55906;52.278;6.808;2023-03-20T07:00:49;101726.22;;;9.08;76.44
68871;BME280;55906;52.278;6.808;2023-03-20T07:03:16;101725.25;;;9.06;77.02
68871;BME280;55906;52.278;6.808;2023-03-20T07:05:42;101725.31;;;9.07;76.69
68871;BME280;55906;52.278;6.808;2023-03-20T07:08:10;101736.28;;;9.16;76.44
68871;BME280;55906;52.278;6.808;2023-03-20T07:10:37;101732.75;;;9.16;76.18
68871;BME280;55906;52.278;6.808;2023-03-20T07:13:03;101738.41;;;9.25;75.58
68871;BME280;55906;52.278;6.808;2023-03-20T07:15:30;101737.31;;;9.20;75.60
68871;BME280;55906;52.278;6.808;2023-03-20T07:17:58;101741.03;;;9.25;75.10
68871;BME280;55906;52.278;6.808;2023-03-20T07:20:25;101739.53;;;9.30;75.14
68871;BME280;55906;52.278;6.808;2023-03-20T07:22:52;101732.47;;;9.29;74.85
68871;BME280;55906;52.278;6.808;2023-03-20T07:25:19;101736.47;;;9.40;74.59
68871;BME280;55906;52.278;6.808;2023-03-20T07:27:47;101742.25;;;9.52;74.15
68871;BME280;55906;52.278;6.808;2023-03-20T07:30:15;101737.50;;;9.44;74.17
68871;BME280;55906;52.278;6.808;2023-03-20T07:32:42;101741.50;;;9.55;74.09
68871;BME280;55906;52.278;6.808;2023-03-20T07:35:10;101731.69;;;9.51;73.21
68871;BME280;55906;52.278;6.808;2023-03-20T07:37:37;101728.03;;;9.47;73.08
68871;BME280;55906;52.278;6.808;2023-03-20T07:40:05;101743.66;;;9.44;73.41
68871;BME280;55906;52.278;6.808;2023-03-20T07:42:32;101741.31;;;9.50;73.37
68871;BME280;55906;52.278;6.808;2023-03-20T07:44:59;101744.25;;;9.58;73.05
68871;BME280;55906;52.278;6.808;2023-03-20T07:47:25;101745.78;;;9.53;72.64
68871;BME280;55906;52.278;6.808;2023-03-20T07:49:52;101733.88;;;9.61;72.05
68871;BME280;55906;52.278;6.808;2023-03-20T07:52:20;101731.56;;;9.48;72.56
68871;BME280;55906;52.278;6.808;2023-03-20T07:54:47;101729.53;;;9.61;72.17
68871;BME280;55906;52.278;6.808;2023-03-20T07:57:13;101726.13;;;9.64;71.30
68871;BME280;55906;52.278;6.808;2023-03-20T07:59:41;101735.47;;;9.57;71.89
68871;BME280;55906;52.278;6.808;2023-03-20T08:02:12;101730.50;;;9.63;71.19
68871;BME280;55906;52.278;6.808;2023-03-20T08:04:39;101735.69;;;9.62;70.99
68871;BME280;55906;52.278;6.808;2023-03-20T08:07:06;101736.16;;;9.73;70.76
68871;BME280;55906;52.278;6.808;2023-03-20T08:09:34;101730.13;;;9.75;70.86
68871;BME280;55906;52.278;6.808;2023-03-20T08:12:00;101730.66;;;9.87;70.56
68871;BME280;55906;52.278;6.808;2023-03-20T08:14:27;101721.16;;;9.91;70.29
68871;BME280;55906;52.278;6.808;2023-03-20T08:16:53;101727.44;;;9.94;70.04
68871;BME280;55906;52.278;6.808;2023-03-20T08:19:20;101723.09;;;9.95;69.53
68871;BME280;55906;52.278;6.808;2023-03-20T08:21:48;101733.22;;;10.07;69.61
68871;BME280;55906;52.278;6.808;2023-03-20T08:24:16;101732.81;;;10.18;69.15
68871;BME280;55906;52.278;6.808;2023-03-20T08:26:43;101742.50;;;10.19;69.19
68871;BME280;55906;52.278;6.808;2023-03-20T08:29:10;101737.84;;;10.33;68.54
68871;BME280;55906;52.278;6.808;2023-03-20T08:31:37;101740.03;;;10.43;68.49
68871;BME280;55906;52.278;6.808;2023-03-20T08:34:04;101738.09;;;10.60;67.52
68871;BME280;55906;52.278;6.808;2023-03-20T08:36:31;101731.28;;;10.65;66.79
68871;BME280;55906;52.278;6.808;2023-03-20T08:38:58;101738.31;;;10.66;67.07
68871;BME280;55906;52.278;6.808;2023-03-20T08:41:24;101742.94;;;10.72;66.43
68871;BME280;55906;52.278;6.808;2023-03-20T08:43:52;101728.50;;;10.84;66.00
68871;BME280;55906;52.278;6.808;2023-03-20T08:46:19;101739.50;;;10.97;65.54
68871;BME280;55906;52.278;6.808;2023-03-20T08:48:46;101744.38;;;10.86;65.84
68871;BME280;55906;52.278;6.808;2023-03-20T08:51:12;101734.84;;;10.89;65.69
68871;BME280;55906;52.278;6.808;2023-03-20T08:53:39;101736.53;;;10.87;65.91
68871;BME280;55906;52.278;6.808;2023-03-20T08:56:07;101739.16;;;10.87;65.27
68871;BME280;55906;52.278;6.808;2023-03-20T08:58:34;101728.56;;;10.86;65.61
68871;BME280;55906;52.278;6.808;2023-03-20T09:01:04;101735.34;;;10.79;65.40
68871;BME280;55906;52.278;6.808;2023-03-20T09:03:30;101732.44;;;10.96;65.56
68871;BME280;55906;52.278;6.808;2023-03-20T09:05:57;101730.78;;;10.98;64.62
68871;BME280;55906;52.278;6.808;2023-03-20T09:08:24;101734.59;;;11.06;64.50
68871;BME280;55906;52.278;6.808;2023-03-20T09:10:50;101738.31;;;11.11;63.90
68871;BME280;55906;52.278;6.808;2023-03-20T09:13:17;101745.91;;;11.03;64.45
68871;BME280;55906;52.278;6.808;2023-03-20T09:15:44;101736.50;;;11.10;63.91
68871;BME280;55906;52.278;6.808;2023-03-20T09:18:12;101745.59;;;11.18;64.20
68871;BME280;55906;52.278;6.808;2023-03-20T09:20:39;101741.44;;;11.25;63.97
68871;BME280;55906;52.278;6.808;2023-03-20T09:23:06;101742.13;;;11.43;63.10
68871;BME280;55906;52.278;6.808;2023-03-20T09:25:32;101740.00;;;11.33;63.32
68871;BME280;55906;52.278;6.808;2023-03-20T09:27:59;101747.06;;;11.34;63.46
68871;BME280;55906;52.278;6.808;2023-03-20T09:30:26;101744.06;;;11.48;62.28
68871;BME280;55906;52.278;6.808;2023-03-20T09:32:52;101747.50;;;11.46;61.16
68871;BME280;55906;52.278;6.808;2023-03-20T09:35:20;101750.75;;;11.63;61.13
68871;BME280;55906;52.278;6.808;2023-03-20T09:37:47;101743.94;;;11.69;61.30
68871;BME280;55906;52.278;6.808;2023-03-20T09:40:22;101745.28;;;11.80;60.32
68871;BME280;55906;52.278;6.808;2023-03-20T09:42:52;101742.59;;;11.79;59.82
68871;BME280;55906;52.278;6.808;2023-03-20T09:45:29;101741.84;;;11.83;59.58
68871;BME280;55906;52.278;6.808;2023-03-20T09:48:04;101740.34;;;11.90;58.51
68871;BME280;55906;52.278;6.808;2023-03-20T09:50:37;101742.59;;;11.79;58.02
68871;BME280;55906;52.278;6.808;2023-03-20T09:53:09;101739.53;;;11.92;58.62
68871;BME280;55906;52.278;6.808;2023-03-20T09:55:38;101739.13;;;11.80;58.32
68871;BME280;55906;52.278;6.808;2023-03-20T09:58:12;101737.28;;;12.03;57.58
68871;BME280;55906;52.278;6.808;2023-03-20T10:00:43;101747.09;;;11.81;57.82
68871;BME280;55906;52.278;6.808;2023-03-20T10:03:16;101743.72;;;11.85;57.69
68871;BME280;55906;52.278;6.808;2023-03-20T10:05:49;101732.00;;;12.03;57.21
68871;BME280;55906;52.278;6.808;2023-03-20T10:08:20;101732.00;;;12.03;57.22
68871;BME280;55906;52.278;6.808;2023-03-20T10:10:51;101729.16;;;11.97;57.83
68871;BME280;55906;52.278;6.808;2023-03-20T10:13:43;101731.84;;;11.98;57.59
68871;BME280;55906;52.278;6.808;2023-03-20T10:16:18;101725.34;;;12.14;57.79
68871;BME280;55906;52.278;6.808;2023-03-20T10:18:53;101726.72;;;12.03;57.91
68871;BME280;55906;52.278;6.808;2023-03-20T10:21:33;101735.31;;;11.97;57.77
68871;BME280;55906;52.278;6.808;2023-03-20T10:24:04;101731.09;;;12.02;57.74
68871;BME280;55906;52.278;6.808;2023-03-20T10:26:34;101724.44;;;12.13;57.44
68871;BME280;55906;52.278;6.808;2023-03-20T10:29:04;101739.88;;;12.28;56.82
68871;BME280;55906;52.278;6.808;2023-03-20T10:31:41;101725.38;;;12.15;56.18
68871;BME280;55906;52.278;6.808;2023-03-20T10:34:21;101730.38;;;12.33;56.33
68871;BME280;55906;52.278;6.808;2023-03-20T10:37:03;101725.72;;;12.53;55.63
68871;BME280;55906;52.278;6.808;2023-03-20T10:39:48;101723.81;;;12.76;55.07
68871;BME280;55906;52.278;6.808;2023-03-20T10:42:20;101718.19;;;12.94;54.24
68871;BME280;55906;52.278;6.808;2023-03-20T10:44:51;101718.97;;;12.91;53.77
68871;BME280;55906;52.278;6.808;2023-03-20T10:47:21;101717.09;;;12.87;53.53
68871;BME280;55906;52.278;6.808;2023-03-20T10:49:53;101707.50;;;13.18;52.97
68871;BME280;55906;52.278;6.808;2023-03-20T10:52:26;101711.81;;;12.87;52.85
68871;BME280;55906;52.278;6.808;2023-03-20T10:54:55;101721.47;;;12.87;53.10
68871;BME280;55906;52.278;6.808;2023-03-20T10:57:25;101732.94;;;12.59;53.86
68871;BME280;55906;52.278;6.808;2023-03-20T10:59:55;101704.91;;;12.62;53.87
68871;BME280;55906;52.278;6.808;2023-03-20T11:02:26;101714.66;;;12.65;53.76
68871;BME280;55906;52.278;6.808;2023-03-20T11:04:54;101708.84;;;12.48;54.09
68871;BME280;55906;52.278;6.808;2023-03-20T11:07:24;101725.63;;;12.50;54.80
68871;BME280;55906;52.278;6.808;2023-03-20T11:10:10;101716.78;;;12.21;55.52
68871;BME280;55906;52.278;6.808;2023-03-20T11:12:39;101711.25;;;12.13;56.20
68871;BME280;55906;52.278;6.808;2023-03-20T11:15:19;101709.16;;;12.03;56.76
68871;BME280;55906;52.278;6.808;2023-03-20T11:17:54;101726.88;;;11.82;57.67
68871;BME280;55906;52.278;6.808;2023-03-20T11:20:21;101731.22;;;11.80;57.87
68871;BME280;55906;52.278;6.808;2023-03-20T11:22:50;101719.63;;;11.76;58.13
68871;BME280;55906;52.278;6.808;2023-03-20T11:25:27;101735.03;;;11.66;58.77
68871;BME280;55906;52.278;6.808;2023-03-20T11:27:56;101739.94;;;11.55;59.09
68871;BME280;55906;52.278;6.808;2023-03-20T11:30:24;101731.63;;;11.44;59.43
68871;BME280;55906;52.278;6.808;2023-03-20T11:32:54;101734.06;;;11.38;59.81
68871;BME280;55906;52.278;6.808;2023-03-20T11:35:26;101726.16;;;11.38;60.28
68871;BME280;55906;52.278;6.808;2023-03-20T11:38:09;101721.66;;;11.36;60.11
68871;BME280;55906;52.278;6.808;2023-03-20T11:40:38;101726.44;;;11.22;59.54
68871;BME280;55906;52.278;6.808;2023-03-20T11:43:10;101742.72;;;11.12;59.98
68871;BME280;55906;52.278;6.808;2023-03-20T11:45:39;101740.38;;;11.19;59.45
68871;BME280;55906;52.278;6.808;2023-03-20T11:48:14;101742.06;;;11.17;59.18
68871;BME280;55906;52.278;6.808;2023-03-20T11:50:45;101723.34;;;11.10;59.20
68871;BME280;55906;52.278;6.808;2023-03-20T11:53:22;101727.44;;;11.26;58.56
68871;BME280;55906;52.278;6.808;2023-03-20T11:56:12;101735.72;;;11.36;58.21
68871;BME280;55906;52.278;6.808;2023-03-20T11:58:54;101718.72;;;11.52;58.38
68871;BME280;55906;52.278;6.808;2023-03-20T12:01:21;101721.38;;;11.52;58.63
68871;BME280;55906;52.278;6.808;2023-03-20T12:03:50;101716.25;;;11.57;58.65
68871;BME280;55906;52.278;6.808;2023-03-20T12:06:21;101722.50;;;11.82;58.32
68871;BME280;55906;52.278;6.808;2023-03-20T12:08:54;101716.56;;;11.88;58.48
68871;BME280;55906;52.278;6.808;2023-03-20T12:11:39;101721.53;;;12.06;58.21
68871;BME280;55906;52.278;6.808;2023-03-20T12:14:16;101730.47;;;11.84;58.79
68871;BME280;55906;52.278;6.808;2023-03-20T12:16:49;101737.03;;;11.71;59.30
68871;BME280;55906;52.278;6.808;2023-03-20T12:19:20;101720.13;;;11.66;59.54
68871;BME280;55906;52.278;6.808;2023-03-20T12:21:53;101717.22;;;11.59;60.42
68871;BME280;55906;52.278;6.808;2023-03-20T12:24:26;101726.88;;;11.34;61.21
68871;BME280;55906;52.278;6.808;2023-03-20T12:27:12;101720.16;;;11.42;61.58
68871;BME280;55906;52.278;6.808;2023-03-20T12:29:45;101726.91;;;11.60;61.68
68871;BME280;55906;52.278;6.808;2023-03-20T12:32:16;101703.19;;;11.60;61.86
68871;BME280;55906;52.278;6.808;2023-03-20T12:34:49;101710.94;;;11.55;62.64
68871;BME280;55906;52.278;6.808;2023-03-20T12:37:18;101706.66;;;11.59;61.98
68871;BME280;55906;52.278;6.808;2023-03-20T12:39:49;101710.88;;;11.53;61.76
68871;BME280;55906;52.278;6.808;2023-03-20T12:42:26;101696.03;;;11.55;62.19
68871;BME280;55906;52.278;6.808;2023-03-20T12:45:00;101693.09;;;11.72;61.49
68871;BME280;55906;52.278;6.808;2023-03-20T12:47:56;101686.47;;;11.59;62.54
68871;BME280;55906;52.278;6.808;2023-03-20T12:50:31;101693.84;;;11.44;62.66
68871;BME280;55906;52.278;6.808;2023-03-20T12:53:10;101686.41;;;11.32;63.88
68871;BME280;55906;52.278;6.808;2023-03-20T12:55:50;101686.97;;;11.23;64.76
68871;BME280;55906;52.278;6.808;2023-03-20T12:58:24;101682.44;;;11.19;64.44
68871;BME280;55906;52.278;6.808;2023-03-20T13:00:59;101683.59;;;11.28;65.36
68871;BME280;55906;52.278;6.808;2023-03-20T13:03:40;101680.91;;;11.26;65.22
68871;BME280;55906;52.278;6.808;2023-03-20T13:06:14;101680.47;;;11.14;65.21
68871;BME280;55906;52.278;6.808;2023-03-20T13:11:52;101682.38;;;11.18;66.85
68871;BME280;55906;52.278;6.808;2023-03-20T13:14:25;101672.81;;;11.20;66.42
68871;BME280;55906;52.278;6.808;2023-03-20T13:16:59;101678.78;;;11.16;66.73
68871;BME280;55906;52.278;6.808;2023-03-20T13:19:36;101671.41;;;11.06;66.95